createdAt,value
2019-03-11T00:03:40.140Z,75.41
2019-03-11T00:06:28.943Z,75.37
2019-03-11T00:12:12.769Z,75.79
2019-03-11T00:15:01.581Z,75.27
2019-03-11T00:17:50.366Z,75.81
2019-03-11T00:20:39.176Z,74.82
2019-03-11T00:23:27.974Z,75.97
2019-03-11T00:26:09.908Z,75.06
2019-03-11T00:28:58.722Z,74.69
2019-03-11T00:31:47.514Z,75.08
2019-03-11T00:34:36.377Z,74.82
2019-03-11T00:37:25.219Z,74.79
2019-03-11T00:40:34.962Z,74.42
2019-03-11T00:43:23.760Z,74.55
2019-03-11T00:46:20.041Z,75.07
2019-03-11T00:49:08.837Z,74.01
2019-03-11T00:51:57.655Z,74.20
2019-03-11T00:54:46.455Z,75.22
2019-03-11T00:57:35.275Z,74.62
2019-03-11T01:00:43.575Z,75.00
2019-03-11T01:03:32.694Z,74.20
2019-03-11T01:06:21.506Z,74.46
2019-03-11T01:09:10.619Z,73.75
2019-03-11T01:11:59.412Z,74.79
2019-03-11T01:17:43.035Z,74.34
2019-03-11T01:20:25.012Z,74.77
2019-03-11T01:23:13.833Z,74.08
2019-03-11T01:26:02.638Z,73.73
2019-03-11T01:28:51.457Z,73.79
2019-03-11T01:31:40.255Z,73.92
2019-03-11T01:34:29.080Z,74.43
2019-03-11T01:37:17.875Z,73.39
2019-03-11T01:40:26.010Z,73.66
2019-03-11T01:43:14.804Z,73.19
2019-03-11T01:46:03.623Z,73.02
2019-03-11T01:48:52.424Z,73.18
2019-03-11T01:54:35.878Z,72.48
2019-03-11T01:57:24.673Z,72.05
2019-03-11T02:00:34.398Z,72.57
2019-03-11T02:03:23.209Z,72.34
2019-03-11T02:06:12.047Z,73.19
2019-03-11T02:09:00.850Z,74.47
2019-03-11T02:11:49.669Z,75.49
2019-03-11T02:14:38.467Z,75.55
2019-03-11T02:17:27.576Z,75.88
2019-03-11T02:20:10.944Z,76.28
2019-03-11T02:22:59.763Z,77.04
2019-03-11T02:25:48.556Z,76.47
2019-03-11T02:28:37.374Z,76.34
2019-03-11T02:31:26.161Z,77.40
2019-03-11T02:34:14.981Z,76.80
2019-03-11T02:37:03.799Z,77.60
2019-03-11T02:39:52.599Z,77.74
2019-03-11T02:42:41.414Z,78.41
2019-03-11T02:45:30.536Z,78.57
2019-03-11T02:48:19.334Z,77.59
2019-03-11T02:51:27.245Z,76.53
2019-03-11T02:53:56.698Z,76.92
2019-03-11T02:56:26.149Z,76.10
2019-03-11T02:59:14.969Z,75.71
2019-03-11T03:02:22.799Z,74.30
2019-03-11T03:05:30.717Z,73.85
2019-03-11T03:08:19.550Z,73.02
2019-03-11T03:11:08.353Z,72.08
2019-03-11T03:13:57.158Z,71.46
2019-03-11T03:16:45.952Z,71.12
2019-03-11T03:19:34.768Z,70.67
2019-03-11T03:22:16.462Z,70.56
2019-03-11T03:25:33.602Z,70.68
2019-03-11T03:28:09.638Z,70.14
2019-03-11T03:30:58.567Z,70.27
2019-03-11T03:33:47.472Z,70.45
2019-03-11T03:36:36.334Z,69.75
2019-03-11T03:39:25.183Z,70.11
2019-03-11T03:42:14.072Z,70.08
2019-03-11T03:45:22.831Z,69.69
2019-03-11T03:48:11.727Z,69.05
2019-03-11T03:51:00.549Z,69.33
2019-03-11T03:56:44.342Z,70.21
2019-03-11T03:59:33.155Z,70.44
2019-03-11T04:02:21.950Z,69.77
2019-03-11T04:08:26.539Z,69.41
2019-03-11T04:11:15.336Z,69.20
2019-03-11T04:14:04.165Z,70.79
2019-03-11T04:16:52.986Z,70.97
2019-03-11T04:19:41.804Z,73.81
2019-03-11T04:22:23.297Z,74.33
2019-03-11T04:25:31.182Z,73.91
2019-03-11T04:28:20.006Z,75.37
2019-03-11T04:31:08.792Z,76.46
2019-03-11T04:33:57.615Z,75.64
2019-03-11T04:36:46.404Z,74.83
2019-03-11T04:39:35.542Z,74.92
2019-03-11T04:42:24.333Z,74.71
2019-03-11T04:45:32.470Z,74.08
2019-03-11T04:48:21.568Z,74.18
2019-03-11T04:51:10.386Z,71.12
2019-03-11T04:57:06.979Z,71.41
2019-03-11T04:59:55.799Z,70.07
2019-03-11T05:02:44.670Z,69.18
2019-03-11T05:05:33.603Z,68.08
2019-03-11T05:08:22.477Z,67.07
2019-03-11T05:11:11.301Z,67.90
2019-03-11T05:14:00.446Z,67.60
2019-03-11T05:19:56.988Z,68.17
2019-03-11T05:22:45.850Z,67.59
2019-03-11T05:25:34.663Z,66.95
2019-03-11T05:28:16.014Z,66.69
2019-03-11T05:31:04.808Z,66.57
2019-03-11T05:34:12.699Z,65.82
2019-03-11T05:37:01.513Z,66.85
2019-03-11T05:39:50.305Z,67.46
2019-03-11T05:42:39.128Z,67.05
2019-03-11T05:45:27.945Z,67.11
2019-03-11T05:48:16.760Z,66.29
2019-03-11T05:51:05.554Z,65.38
2019-03-11T05:53:54.503Z,65.69
2019-03-11T05:59:51.051Z,65.45
2019-03-11T06:02:39.856Z,65.62
2019-03-11T06:05:28.664Z,65.29
2019-03-11T06:08:36.787Z,65.44
2019-03-11T06:11:25.599Z,65.61
2019-03-11T06:14:14.393Z,66.04
2019-03-11T06:17:03.213Z,70.57
2019-03-11T06:22:40.615Z,73.32
2019-03-11T06:25:29.420Z,72.60
2019-03-11T06:28:37.253Z,72.45
2019-03-11T06:31:26.055Z,72.37
2019-03-11T06:33:55.529Z,72.89
2019-03-11T06:36:44.342Z,72.28
2019-03-11T06:39:33.139Z,73.76
2019-03-11T06:42:21.964Z,74.58
2019-03-11T06:45:31.678Z,74.30
2019-03-11T06:51:14.927Z,73.78
2019-03-11T06:54:03.771Z,72.96
2019-03-11T06:56:52.868Z,71.86
2019-03-11T06:59:41.681Z,71.47
2019-03-11T07:02:30.489Z,71.81
2019-03-11T07:05:20.950Z,71.08
2019-03-11T07:08:09.821Z,71.85
2019-03-11T07:10:58.638Z,69.28
2019-03-11T07:13:47.433Z,71.23
2019-03-11T07:16:36.247Z,72.62
2019-03-11T07:19:25.066Z,71.21
2019-03-11T07:22:14.707Z,69.92
2019-03-11T07:24:57.763Z,67.97
2019-03-11T07:27:46.617Z,66.46
2019-03-11T07:30:35.438Z,66.33
2019-03-11T07:33:24.246Z,66.36
2019-03-11T07:36:13.068Z,66.03
2019-03-11T07:39:01.856Z,65.84
2019-03-11T07:41:50.672Z,66.07
2019-03-11T07:44:39.470Z,66.58
2019-03-11T07:47:28.286Z,69.93
2019-03-11T07:50:17.568Z,72.26
2019-03-11T07:53:06.456Z,75.61
2019-03-11T07:55:55.252Z,76.37
2019-03-11T07:58:44.068Z,76.99
2019-03-11T08:01:32.876Z,77.86
2019-03-11T08:04:21.683Z,78.31
2019-03-11T08:07:10.476Z,78.18
2019-03-11T08:09:59.295Z,78.14
2019-03-11T08:12:48.113Z,79.67
2019-03-11T08:15:36.902Z,78.99
2019-03-11T08:18:34.386Z,79.53
2019-03-11T08:21:16.252Z,80.11
2019-03-11T08:24:05.056Z,79.87
2019-03-11T08:26:53.867Z,80.66
2019-03-11T08:29:42.660Z,80.21
2019-03-11T08:32:31.477Z,79.49
2019-03-11T08:35:20.268Z,78.82
2019-03-11T08:38:09.078Z,78.28
2019-03-11T08:40:57.951Z,79.04
2019-03-11T08:43:46.759Z,78.82
2019-03-11T08:46:35.556Z,78.28
2019-03-11T08:49:24.395Z,77.34
2019-03-11T08:55:21.182Z,77.60
2019-03-11T08:58:09.979Z,78.37
2019-03-11T09:00:58.801Z,78.09
2019-03-11T09:04:06.710Z,78.71
2019-03-11T09:06:55.500Z,78.41
2019-03-11T09:09:44.314Z,77.66
2019-03-11T09:12:33.124Z,73.44
2019-03-11T09:15:22.160Z,73.71
2019-03-11T09:18:10.974Z,73.73
2019-03-11T09:20:59.767Z,73.16
2019-03-11T09:23:41.863Z,72.24
2019-03-11T09:26:30.654Z,74.02
2019-03-11T09:29:19.467Z,74.25
2019-03-11T09:32:08.345Z,74.06
2019-03-11T09:34:57.143Z,74.25
2019-03-11T09:37:45.961Z,73.71
2019-03-11T09:40:34.756Z,73.61
2019-03-11T09:43:23.570Z,74.64
2019-03-11T09:46:12.454Z,74.09
2019-03-11T09:49:01.248Z,74.82
2019-03-11T09:51:50.067Z,75.77
2019-03-11T09:54:38.868Z,74.22
2019-03-11T09:57:28.019Z,72.47
2019-03-11T10:00:37.727Z,73.94
2019-03-11T10:03:26.543Z,74.59
2019-03-11T10:06:15.340Z,73.39
2019-03-11T10:12:19.024Z,75.55
2019-03-11T10:15:28.745Z,74.96
2019-03-11T10:18:17.533Z,74.72
2019-03-11T10:21:06.357Z,75.04
2019-03-11T10:23:48.062Z,75.23
2019-03-11T10:26:36.906Z,75.55
2019-03-11T10:29:25.745Z,75.49
2019-03-11T10:32:14.518Z,74.47
2019-03-11T10:35:03.334Z,74.81
2019-03-11T10:37:52.136Z,75.05
2019-03-11T10:40:40.942Z,75.64
2019-03-11T10:43:29.738Z,75.26
2019-03-11T10:46:18.565Z,75.58
2019-03-11T10:49:07.359Z,75.79
2019-03-11T10:51:56.169Z,77.22
2019-03-11T10:54:45.072Z,77.00
2019-03-11T10:57:33.938Z,76.13
2019-03-11T11:03:41.591Z,74.75
2019-03-11T11:06:30.437Z,73.73
2019-03-11T11:09:19.288Z,73.52
2019-03-11T11:12:08.093Z,73.91
2019-03-11T11:14:56.956Z,74.70
2019-03-11T11:17:46.111Z,75.20
2019-03-11T11:20:34.970Z,76.08
2019-03-11T11:23:16.698Z,74.92
2019-03-11T11:26:05.582Z,74.40
2019-03-11T11:28:54.376Z,74.38
2019-03-11T11:31:43.193Z,75.09
2019-03-11T11:34:32.012Z,73.47
2019-03-11T11:37:20.804Z,71.88
2019-03-11T11:40:30.526Z,73.39
2019-03-11T11:43:19.324Z,70.59
2019-03-11T11:46:08.137Z,67.69
2019-03-11T11:48:56.964Z,67.91
2019-03-11T11:51:45.751Z,66.35
2019-03-11T11:54:34.584Z,67.65
2019-03-11T11:57:23.439Z,67.41
2019-03-11T12:00:50.598Z,66.47
2019-03-11T12:03:39.393Z,66.91
2019-03-11T12:06:28.201Z,65.74
2019-03-11T12:09:17.024Z,66.42
2019-03-11T12:12:06.176Z,65.63
2019-03-11T12:14:56.372Z,63.32
2019-03-11T12:20:52.921Z,65.20
2019-03-11T12:23:45.641Z,64.14
2019-03-11T12:29:19.830Z,65.74
2019-03-11T12:32:08.716Z,66.12
2019-03-11T12:34:57.513Z,67.70
2019-03-11T12:37:46.399Z,67.14
2019-03-11T12:40:35.196Z,66.86
2019-03-11T12:43:24.085Z,68.18
2019-03-11T12:46:12.906Z,69.46
2019-03-11T12:49:01.718Z,68.79
2019-03-11T12:51:50.609Z,69.01
2019-03-11T12:54:39.423Z,69.77
2019-03-11T12:57:47.263Z,69.73
2019-03-11T13:00:36.063Z,69.36
2019-03-11T13:03:24.873Z,67.69
2019-03-11T13:06:13.689Z,66.25
2019-03-11T13:09:02.542Z,67.84
2019-03-11T13:11:51.389Z,71.26
2019-03-11T13:14:40.180Z,73.92
2019-03-11T13:17:29.006Z,77.69
2019-03-11T13:20:38.703Z,78.62
2019-03-11T13:23:20.675Z,79.42
2019-03-11T13:26:09.514Z,77.33
2019-03-11T13:28:58.504Z,74.71
2019-03-11T13:31:47.328Z,73.98
2019-03-11T13:34:36.142Z,72.68
2019-03-11T13:37:24.943Z,70.82
2019-03-11T13:43:29.297Z,69.02
2019-03-11T13:46:18.187Z,68.92
2019-03-11T13:49:07.057Z,67.06
2019-03-11T13:51:55.880Z,65.55
2019-03-11T13:54:44.675Z,68.47
2019-03-11T13:57:33.484Z,69.27
2019-03-11T14:00:22.551Z,70.17
2019-03-11T14:03:11.370Z,72.48
2019-03-11T14:06:00.184Z,74.97
2019-03-11T14:08:48.977Z,75.07
2019-03-11T14:11:37.797Z,73.39
2019-03-11T14:14:26.596Z,73.75
2019-03-11T14:17:15.407Z,74.14
2019-03-11T14:20:25.135Z,73.80
2019-03-11T14:23:06.675Z,71.74
2019-03-11T14:25:55.459Z,70.85
2019-03-11T14:28:44.282Z,68.41
2019-03-11T14:31:33.100Z,64.44
2019-03-11T14:34:22.503Z,62.91
2019-03-11T14:37:11.319Z,57.09
2019-03-11T14:40:00.365Z,54.72
2019-03-11T14:42:50.664Z,56.02
2019-03-11T14:45:39.491Z,51.12
2019-03-11T14:48:28.297Z,51.78
2019-03-11T14:51:17.101Z,50.08
2019-03-11T14:54:05.923Z,51.56
2019-03-11T14:57:13.762Z,56.26
2019-03-11T15:00:02.576Z,58.35
2019-03-11T15:02:51.454Z,59.28
2019-03-11T15:05:40.253Z,59.14
2019-03-11T15:08:29.063Z,55.48
2019-03-11T15:11:20.307Z,59.92
2019-03-11T15:14:08.658Z,59.70
2019-03-11T15:16:57.477Z,61.92
2019-03-11T15:19:46.275Z,60.40
2019-03-11T15:22:35.092Z,62.68
2019-03-11T15:25:16.923Z,62.16
2019-03-11T15:28:05.734Z,64.94
2019-03-11T15:30:54.776Z,67.13
2019-03-11T15:33:43.586Z,66.79
2019-03-11T15:36:33.789Z,65.43
2019-03-11T15:42:03.011Z,62.61
2019-03-11T15:44:51.809Z,60.38
2019-03-11T15:47:40.620Z,63.83
2019-03-11T15:50:50.347Z,65.15
2019-03-11T15:53:39.138Z,65.94
2019-03-11T15:56:27.947Z,68.29
2019-03-11T15:59:16.744Z,69.71
2019-03-11T16:02:05.562Z,68.37
2019-03-11T16:04:54.354Z,68.15
2019-03-11T16:07:43.163Z,68.30
2019-03-11T16:10:31.956Z,70.78
2019-03-11T16:13:20.764Z,70.57
2019-03-11T16:16:09.626Z,71.80
2019-03-11T16:18:58.510Z,72.41
2019-03-11T16:21:47.312Z,73.41
2019-03-11T16:24:28.599Z,73.78
2019-03-11T16:27:17.466Z,72.34
2019-03-11T16:30:27.188Z,72.36
2019-03-11T16:33:15.980Z,70.51
2019-03-11T16:36:04.857Z,71.69
2019-03-11T16:38:53.668Z,71.75
2019-03-11T16:41:42.537Z,70.25
2019-03-11T16:44:31.419Z,70.02
2019-03-11T16:47:20.275Z,71.24
2019-03-11T16:50:28.466Z,72.24
2019-03-11T16:53:17.303Z,72.62
2019-03-11T16:56:06.239Z,73.23
2019-03-11T16:58:55.081Z,74.13
2019-03-11T17:01:44.040Z,75.24
2019-03-11T17:04:32.881Z,76.00
2019-03-11T17:07:21.761Z,76.09
2019-03-11T17:10:31.576Z,76.01
2019-03-11T17:13:20.469Z,75.70
2019-03-11T17:16:02.484Z,75.98
2019-03-11T17:18:51.313Z,76.29
2019-03-11T17:21:40.292Z,76.50
2019-03-11T17:24:29.076Z,77.70
2019-03-11T17:27:17.885Z,78.73
2019-03-11T17:30:27.895Z,79.34
2019-03-11T17:36:24.454Z,79.09
2019-03-11T17:39:13.242Z,78.93
2019-03-11T17:42:02.070Z,78.04
2019-03-11T17:44:50.887Z,77.99
2019-03-11T17:47:39.680Z,79.31
2019-03-11T17:50:28.484Z,79.53
2019-03-11T17:53:20.358Z,78.64
2019-03-11T17:56:10.197Z,79.09
2019-03-11T17:58:59.005Z,78.09
2019-03-11T18:01:47.822Z,78.18
2019-03-11T18:04:36.628Z,77.51
2019-03-11T18:07:25.445Z,77.50
2019-03-11T18:10:14.412Z,78.46
2019-03-11T18:13:03.317Z,78.26
2019-03-11T18:15:45.048Z,78.86
2019-03-11T18:18:33.869Z,78.67
2019-03-11T18:21:22.826Z,78.15
2019-03-11T18:24:11.639Z,79.34
2019-03-11T18:27:19.479Z,79.54
2019-03-11T18:30:46.967Z,81.24
2019-03-11T18:33:35.774Z,82.30
2019-03-11T18:36:24.585Z,83.02
2019-03-11T18:39:13.467Z,82.24
2019-03-11T18:42:02.272Z,82.09
2019-03-11T18:44:51.069Z,82.04
2019-03-11T18:47:39.941Z,83.44
2019-03-11T18:50:28.814Z,82.67
2019-03-11T18:53:31.759Z,83.39
2019-03-11T18:56:08.165Z,83.79
2019-03-11T18:58:56.965Z,83.88
2019-03-11T19:01:48.301Z,82.96
2019-03-11T19:04:36.267Z,83.44
2019-03-11T19:07:25.107Z,82.18
2019-03-11T19:10:34.803Z,82.12
2019-03-11T19:13:23.740Z,83.45
2019-03-11T19:16:06.831Z,83.11
2019-03-11T19:18:55.689Z,83.58
2019-03-11T19:21:44.560Z,84.03
2019-03-11T19:24:33.710Z,82.50
2019-03-11T19:27:22.526Z,82.66
2019-03-11T19:30:32.216Z,82.17
2019-03-11T19:33:21.040Z,83.60
2019-03-11T19:36:09.825Z,83.81
2019-03-11T19:38:58.905Z,82.63
2019-03-11T19:41:47.701Z,81.96
2019-03-11T19:44:36.551Z,82.23
2019-03-11T19:47:25.325Z,81.77
2019-03-11T19:50:33.493Z,82.09
2019-03-11T19:53:22.261Z,81.69
2019-03-11T19:56:11.186Z,81.15
2019-03-11T19:59:00.269Z,81.06
2019-03-11T20:01:49.109Z,81.04
2019-03-11T20:04:37.990Z,81.89
2019-03-11T20:07:26.751Z,81.44
2019-03-11T20:10:15.849Z,81.50
2019-03-11T20:16:33.103Z,82.17
2019-03-11T20:19:21.932Z,81.06
2019-03-11T20:22:10.826Z,81.28
2019-03-11T20:24:59.613Z,81.07
2019-03-11T20:27:48.465Z,81.50
2019-03-11T20:30:37.274Z,81.24
2019-03-11T20:33:26.135Z,82.75
2019-03-11T20:36:20.937Z,82.10
2019-03-11T20:39:26.820Z,81.85
2019-03-11T20:42:15.617Z,81.71
2019-03-11T20:45:25.363Z,81.59
2019-03-11T20:48:14.196Z,81.59
2019-03-11T20:51:04.689Z,81.16
2019-03-11T20:54:12.638Z,80.49
2019-03-11T20:56:54.349Z,81.17
2019-03-11T20:59:43.131Z,80.62
2019-03-11T21:02:31.939Z,80.02
2019-03-11T21:05:59.462Z,80.51
2019-03-11T21:08:48.282Z,82.81
2019-03-11T21:18:20.775Z,82.61
2019-03-11T21:21:09.589Z,83.01
2019-03-11T21:24:17.423Z,83.16
2019-03-11T21:27:06.254Z,82.95
2019-03-11T21:29:55.052Z,83.07
2019-03-11T21:32:43.943Z,83.33
2019-03-11T21:35:32.768Z,82.35
2019-03-11T21:38:23.277Z,82.12
2019-03-11T21:41:12.094Z,82.57
2019-03-11T21:44:02.662Z,83.21
2019-03-11T21:46:51.582Z,83.03
2019-03-11T21:49:40.461Z,82.05
2019-03-11T21:55:30.124Z,82.02
2019-03-11T21:58:18.999Z,81.11
2019-03-11T22:01:07.905Z,80.87
2019-03-11T22:03:56.723Z,80.36
2019-03-11T22:06:45.538Z,80.31
2019-03-11T22:09:34.338Z,80.08
2019-03-11T22:12:23.208Z,80.31
2019-03-11T22:15:31.324Z,80.53
2019-03-11T22:18:39.191Z,80.98
2019-03-11T22:21:28.035Z,80.75
2019-03-11T22:24:16.846Z,79.70
2019-03-11T22:27:05.717Z,78.87
2019-03-11T22:29:54.518Z,78.76
2019-03-11T22:32:43.333Z,78.81
2019-03-11T22:35:32.122Z,78.54
2019-03-11T22:38:20.954Z,78.67
2019-03-11T22:41:09.762Z,78.48
2019-03-11T22:43:58.560Z,79.08
2019-03-11T22:46:47.376Z,78.92
2019-03-11T22:49:36.170Z,78.73
2019-03-11T22:52:24.987Z,78.55
2019-03-11T22:58:35.416Z,79.14
2019-03-11T23:01:24.283Z,78.98
2019-03-11T23:04:13.103Z,79.20
2019-03-11T23:07:01.911Z,79.08
2019-03-11T23:09:50.705Z,79.85
2019-03-11T23:12:39.514Z,79.83
2019-03-11T23:15:28.301Z,79.72
2019-03-11T23:18:17.183Z,79.42
2019-03-11T23:21:05.990Z,79.70
2019-03-11T23:23:54.807Z,79.37
2019-03-11T23:26:43.591Z,79.37
2019-03-11T23:29:32.406Z,79.46
2019-03-11T23:32:21.197Z,79.12
2019-03-11T23:35:10.092Z,79.11
2019-03-11T23:37:58.884Z,78.68
2019-03-11T23:40:47.700Z,78.38
2019-03-11T23:46:44.252Z,78.35
2019-03-11T23:49:33.049Z,78.04
2019-03-11T23:52:14.302Z,78.72
2019-03-11T23:58:17.697Z,78.38
